sensor_id;sensor_type;location;lat;lon;timestamp;P1;durP1;ratioP1;P2;durP2;ratioP2
16242;SDS011;11719;51.052;6.982;2022-07-12T00:01:57;3.30;;;3.00;;
16242;SDS011;11719;51.052;6.982;2022-07-12T00:04:22;3.53;;;3.23;;
16242;SDS011;11719;51.052;6.982;2022-07-12T00:06:48;3.10;;;2.90;;
16242;SDS011;11719;51.052;6.982;2022-07-12T00:09:14;3.10;;;2.90;;
16242;SDS011;11719;51.052;6.982;2022-07-12T00:11:40;3.13;;;2.93;;
16242;SDS011;11719;51.052;6.982;2022-07-12T00:14:07;2.90;;;2.70;;
16242;SDS011;11719;51.052;6.982;2022-07-12T00:16:34;3.40;;;3.10;;
16242;SDS011;11719;51.052;6.982;2022-07-12T00:19:00;3.23;;;3.03;;
16242;SDS011;11719;51.052;6.982;2022-07-12T00:21:26;4.17;;;3.83;;
16242;SDS011;11719;51.052;6.982;2022-07-12T00:23:52;2.97;;;2.77;;
16242;SDS011;11719;51.052;6.982;2022-07-12T00:26:18;3.20;;;3.00;;
16242;SDS011;11719;51.052;6.982;2022-07-12T00:28:44;3.03;;;2.80;;
16242;SDS011;11719;51.052;6.982;2022-07-12T00:31:10;2.77;;;2.57;;
16242;SDS011;11719;51.052;6.982;2022-07-12T00:33:36;3.10;;;2.90;;
16242;SDS011;11719;51.052;6.982;2022-07-12T00:36:02;3.33;;;3.03;;
16242;SDS011;11719;51.052;6.982;2022-07-12T00:38:28;3.53;;;3.20;;
16242;SDS011;11719;51.052;6.982;2022-07-12T00:40:54;2.90;;;2.70;;
16242;SDS011;11719;51.052;6.982;2022-07-12T00:43:20;3.63;;;3.33;;
16242;SDS011;11719;51.052;6.982;2022-07-12T00:45:46;2.83;;;2.63;;
16242;SDS011;11719;51.052;6.982;2022-07-12T00:48:11;3.27;;;3.07;;
16242;SDS011;11719;51.052;6.982;2022-07-12T00:50:38;3.10;;;2.90;;
16242;SDS011;11719;51.052;6.982;2022-07-12T00:53:04;2.90;;;2.70;;
16242;SDS011;11719;51.052;6.982;2022-07-12T00:55:30;3.20;;;3.00;;
16242;SDS011;11719;51.052;6.982;2022-07-12T00:57:57;3.40;;;3.20;;
16242;SDS011;11719;51.052;6.982;2022-07-12T01:00:23;3.53;;;3.23;;
16242;SDS011;11719;51.052;6.982;2022-07-12T01:02:52;3.10;;;2.90;;
16242;SDS011;11719;51.052;6.982;2022-07-12T01:05:20;2.90;;;2.70;;
16242;SDS011;11719;51.052;6.982;2022-07-12T01:07:47;2.53;;;2.33;;
16242;SDS011;11719;51.052;6.982;2022-07-12T01:10:14;3.00;;;2.80;;
16242;SDS011;11719;51.052;6.982;2022-07-12T01:12:40;3.37;;;3.17;;
16242;SDS011;11719;51.052;6.982;2022-07-12T01:15:07;3.10;;;2.80;;
16242;SDS011;11719;51.052;6.982;2022-07-12T01:17:34;3.00;;;2.80;;
16242;SDS011;11719;51.052;6.982;2022-07-12T01:20:00;3.40;;;3.20;;
16242;SDS011;11719;51.052;6.982;2022-07-12T01:22:33;2.90;;;2.70;;
16242;SDS011;11719;51.052;6.982;2022-07-12T01:25:01;2.90;;;2.70;;
16242;SDS011;11719;51.052;6.982;2022-07-12T01:27:29;2.80;;;2.60;;
16242;SDS011;11719;51.052;6.982;2022-07-12T01:29:55;2.87;;;2.67;;
16242;SDS011;11719;51.052;6.982;2022-07-12T01:32:21;2.50;;;2.40;;
16242;SDS011;11719;51.052;6.982;2022-07-12T01:34:51;2.67;;;2.47;;
16242;SDS011;11719;51.052;6.982;2022-07-12T01:37:19;2.77;;;2.57;;
16242;SDS011;11719;51.052;6.982;2022-07-12T01:39:48;2.63;;;2.43;;
16242;SDS011;11719;51.052;6.982;2022-07-12T01:42:22;3.33;;;3.13;;
16242;SDS011;11719;51.052;6.982;2022-07-12T01:44:51;3.30;;;3.10;;
16242;SDS011;11719;51.052;6.982;2022-07-12T01:47:19;2.70;;;2.50;;
16242;SDS011;11719;51.052;6.982;2022-07-12T01:49:48;2.53;;;2.33;;
16242;SDS011;11719;51.052;6.982;2022-07-12T01:52:14;3.10;;;2.90;;
16242;SDS011;11719;51.052;6.982;2022-07-12T01:54:41;2.77;;;2.57;;
16242;SDS011;11719;51.052;6.982;2022-07-12T01:57:07;3.07;;;2.60;;
16242;SDS011;11719;51.052;6.982;2022-07-12T01:59:33;3.03;;;2.83;;
16242;SDS011;11719;51.052;6.982;2022-07-12T02:02:01;2.77;;;2.57;;
16242;SDS011;11719;51.052;6.982;2022-07-12T02:04:28;2.73;;;2.53;;
16242;SDS011;11719;51.052;6.982;2022-07-12T02:06:54;3.10;;;2.90;;
16242;SDS011;11719;51.052;6.982;2022-07-12T02:09:21;3.13;;;2.90;;
16242;SDS011;11719;51.052;6.982;2022-07-12T02:11:47;5.07;;;4.40;;
16242;SDS011;11719;51.052;6.982;2022-07-12T02:14:13;2.90;;;2.70;;
16242;SDS011;11719;51.052;6.982;2022-07-12T02:16:40;5.63;;;5.13;;
16242;SDS011;11719;51.052;6.982;2022-07-12T02:19:07;3.03;;;2.83;;
16242;SDS011;11719;51.052;6.982;2022-07-12T02:21:33;3.37;;;3.07;;
16242;SDS011;11719;51.052;6.982;2022-07-12T02:24:00;3.20;;;3.00;;
16242;SDS011;11719;51.052;6.982;2022-07-12T02:26:26;3.37;;;3.13;;
16242;SDS011;11719;51.052;6.982;2022-07-12T02:28:52;4.53;;;4.23;;
16242;SDS011;11719;51.052;6.982;2022-07-12T02:31:18;3.10;;;2.90;;
16242;SDS011;11719;51.052;6.982;2022-07-12T02:33:44;3.07;;;2.87;;
16242;SDS011;11719;51.052;6.982;2022-07-12T02:36:10;2.87;;;2.67;;
16242;SDS011;11719;51.052;6.982;2022-07-12T02:38:36;3.10;;;2.90;;
16242;SDS011;11719;51.052;6.982;2022-07-12T02:41:02;3.00;;;2.80;;
16242;SDS011;11719;51.052;6.982;2022-07-12T02:43:28;3.20;;;3.00;;
16242;SDS011;11719;51.052;6.982;2022-07-12T02:46:02;3.20;;;3.00;;
16242;SDS011;11719;51.052;6.982;2022-07-12T02:48:31;5.93;;;5.33;;
16242;SDS011;11719;51.052;6.982;2022-07-12T02:50:58;4.10;;;3.80;;
16242;SDS011;11719;51.052;6.982;2022-07-12T02:53:25;3.70;;;3.40;;
16242;SDS011;11719;51.052;6.982;2022-07-12T02:55:51;2.90;;;2.70;;
16242;SDS011;11719;51.052;6.982;2022-07-12T02:58:17;3.00;;;2.80;;
16242;SDS011;11719;51.052;6.982;2022-07-12T03:00:42;3.00;;;2.80;;
16242;SDS011;11719;51.052;6.982;2022-07-12T03:03:10;3.20;;;3.00;;
16242;SDS011;11719;51.052;6.982;2022-07-12T03:05:37;2.97;;;2.77;;
16242;SDS011;11719;51.052;6.982;2022-07-12T03:08:04;3.57;;;3.27;;
16242;SDS011;11719;51.052;6.982;2022-07-12T03:10:32;3.07;;;2.87;;
16242;SDS011;11719;51.052;6.982;2022-07-12T03:12:58;3.10;;;2.90;;
16242;SDS011;11719;51.052;6.982;2022-07-12T03:15:24;2.87;;;2.67;;
16242;SDS011;11719;51.052;6.982;2022-07-12T03:17:51;2.90;;;2.70;;
16242;SDS011;11719;51.052;6.982;2022-07-12T03:20:16;2.77;;;2.63;;
16242;SDS011;11719;51.052;6.982;2022-07-12T03:22:43;3.37;;;3.03;;
16242;SDS011;11719;51.052;6.982;2022-07-12T03:25:11;3.43;;;3.23;;
16242;SDS011;11719;51.052;6.982;2022-07-12T03:27:37;3.03;;;2.80;;
16242;SDS011;11719;51.052;6.982;2022-07-12T03:30:05;3.13;;;2.93;;
16242;SDS011;11719;51.052;6.982;2022-07-12T03:32:32;3.13;;;2.93;;
16242;SDS011;11719;51.052;6.982;2022-07-12T03:34:58;2.97;;;2.77;;
16242;SDS011;11719;51.052;6.982;2022-07-12T03:37:23;3.27;;;2.70;;
16242;SDS011;11719;51.052;6.982;2022-07-12T03:39:49;3.27;;;3.07;;
16242;SDS011;11719;51.052;6.982;2022-07-12T03:42:15;3.33;;;3.13;;
16242;SDS011;11719;51.052;6.982;2022-07-12T03:44:41;2.97;;;2.77;;
16242;SDS011;11719;51.052;6.982;2022-07-12T03:47:07;3.60;;;3.30;;
16242;SDS011;11719;51.052;6.982;2022-07-12T03:49:32;3.33;;;3.13;;
16242;SDS011;11719;51.052;6.982;2022-07-12T03:51:58;3.53;;;3.30;;
16242;SDS011;11719;51.052;6.982;2022-07-12T03:54:24;3.10;;;2.80;;
16242;SDS011;11719;51.052;6.982;2022-07-12T03:56:50;2.70;;;2.50;;
16242;SDS011;11719;51.052;6.982;2022-07-12T03:59:34;3.23;;;2.97;;
16242;SDS011;11719;51.052;6.982;2022-07-12T04:02:00;3.20;;;3.00;;
16242;SDS011;11719;51.052;6.982;2022-07-12T04:04:27;3.60;;;3.30;;
16242;SDS011;11719;51.052;6.982;2022-07-12T04:06:53;2.90;;;2.70;;
16242;SDS011;11719;51.052;6.982;2022-07-12T04:09:19;2.80;;;2.60;;
16242;SDS011;11719;51.052;6.982;2022-07-12T04:11:45;3.40;;;3.20;;
16242;SDS011;11719;51.052;6.982;2022-07-12T04:14:11;3.00;;;2.80;;
16242;SDS011;11719;51.052;6.982;2022-07-12T04:16:37;3.10;;;2.90;;
16242;SDS011;11719;51.052;6.982;2022-07-12T04:19:03;2.90;;;2.70;;
16242;SDS011;11719;51.052;6.982;2022-07-12T04:21:30;2.87;;;2.67;;
16242;SDS011;11719;51.052;6.982;2022-07-12T04:23:57;3.00;;;2.80;;
16242;SDS011;11719;51.052;6.982;2022-07-12T04:26:22;3.17;;;2.97;;
16242;SDS011;11719;51.052;6.982;2022-07-12T04:28:48;3.30;;;3.03;;
16242;SDS011;11719;51.052;6.982;2022-07-12T04:31:14;3.17;;;2.97;;
16242;SDS011;11719;51.052;6.982;2022-07-12T04:33:40;2.93;;;2.73;;
16242;SDS011;11719;51.052;6.982;2022-07-12T04:36:06;3.23;;;3.03;;
16242;SDS011;11719;51.052;6.982;2022-07-12T04:38:32;3.17;;;2.97;;
16242;SDS011;11719;51.052;6.982;2022-07-12T04:40:57;3.23;;;3.03;;
16242;SDS011;11719;51.052;6.982;2022-07-12T04:43:23;2.90;;;2.70;;
16242;SDS011;11719;51.052;6.982;2022-07-12T04:45:50;3.03;;;2.83;;
16242;SDS011;11719;51.052;6.982;2022-07-12T04:48:16;3.30;;;3.10;;
16242;SDS011;11719;51.052;6.982;2022-07-12T04:50:42;3.20;;;3.00;;
16242;SDS011;11719;51.052;6.982;2022-07-12T04:53:08;3.80;;;3.40;;
16242;SDS011;11719;51.052;6.982;2022-07-12T04:55:35;10.10;;;5.30;;
16242;SDS011;11719;51.052;6.982;2022-07-12T04:58:01;4.80;;;4.40;;
16242;SDS011;11719;51.052;6.982;2022-07-12T05:00:28;3.27;;;3.07;;
16242;SDS011;11719;51.052;6.982;2022-07-12T05:02:54;3.57;;;3.27;;
16242;SDS011;11719;51.052;6.982;2022-07-12T05:05:20;2.97;;;2.77;;
16242;SDS011;11719;51.052;6.982;2022-07-12T05:07:46;3.50;;;3.20;;
16242;SDS011;11719;51.052;6.982;2022-07-12T05:10:12;3.17;;;2.97;;
16242;SDS011;11719;51.052;6.982;2022-07-12T05:12:38;3.23;;;2.93;;
16242;SDS011;11719;51.052;6.982;2022-07-12T05:15:04;3.20;;;3.00;;
16242;SDS011;11719;51.052;6.982;2022-07-12T05:17:32;3.30;;;3.00;;
16242;SDS011;11719;51.052;6.982;2022-07-12T05:19:58;3.07;;;2.87;;
16242;SDS011;11719;51.052;6.982;2022-07-12T05:22:24;2.53;;;2.43;;
16242;SDS011;11719;51.052;6.982;2022-07-12T05:24:50;2.80;;;2.60;;
16242;SDS011;11719;51.052;6.982;2022-07-12T05:27:15;2.80;;;2.60;;
16242;SDS011;11719;51.052;6.982;2022-07-12T05:29:41;3.10;;;2.80;;
16242;SDS011;11719;51.052;6.982;2022-07-12T05:32:07;3.03;;;2.83;;
16242;SDS011;11719;51.052;6.982;2022-07-12T05:34:33;2.73;;;2.60;;
16242;SDS011;11719;51.052;6.982;2022-07-12T05:36:59;3.03;;;2.83;;
16242;SDS011;11719;51.052;6.982;2022-07-12T05:39:25;3.03;;;2.80;;
16242;SDS011;11719;51.052;6.982;2022-07-12T05:41:51;3.03;;;2.70;;
16242;SDS011;11719;51.052;6.982;2022-07-12T05:44:17;2.90;;;2.70;;
16242;SDS011;11719;51.052;6.982;2022-07-12T05:46:44;3.20;;;3.00;;
16242;SDS011;11719;51.052;6.982;2022-07-12T05:49:11;3.00;;;2.80;;
16242;SDS011;11719;51.052;6.982;2022-07-12T05:51:37;3.13;;;2.93;;
16242;SDS011;11719;51.052;6.982;2022-07-12T05:54:21;4.00;;;3.70;;
16242;SDS011;11719;51.052;6.982;2022-07-12T05:56:47;3.80;;;3.50;;
16242;SDS011;11719;51.052;6.982;2022-07-12T05:59:13;3.43;;;3.23;;
16242;SDS011;11719;51.052;6.982;2022-07-12T06:01:39;3.83;;;3.53;;
16242;SDS011;11719;51.052;6.982;2022-07-12T06:04:06;3.77;;;3.47;;
16242;SDS011;11719;51.052;6.982;2022-07-12T06:06:32;7.67;;;7.03;;
16242;SDS011;11719;51.052;6.982;2022-07-12T06:08:58;5.57;;;4.13;;
16242;SDS011;11719;51.052;6.982;2022-07-12T06:11:24;12.80;;;10.17;;
16242;SDS011;11719;51.052;6.982;2022-07-12T06:13:50;5.90;;;4.17;;
16242;SDS011;11719;51.052;6.982;2022-07-12T06:16:15;3.90;;;3.60;;
16242;SDS011;11719;51.052;6.982;2022-07-12T06:18:41;8.97;;;8.03;;
16242;SDS011;11719;51.052;6.982;2022-07-12T06:21:07;3.47;;;3.27;;
16242;SDS011;11719;51.052;6.982;2022-07-12T06:23:33;3.80;;;3.50;;
16242;SDS011;11719;51.052;6.982;2022-07-12T06:25:59;4.13;;;3.83;;
16242;SDS011;11719;51.052;6.982;2022-07-12T06:28:25;4.33;;;4.03;;
16242;SDS011;11719;51.052;6.982;2022-07-12T06:30:51;4.10;;;3.70;;
16242;SDS011;11719;51.052;6.982;2022-07-12T06:33:17;4.10;;;3.80;;
16242;SDS011;11719;51.052;6.982;2022-07-12T06:35:43;3.93;;;3.63;;
16242;SDS011;11719;51.052;6.982;2022-07-12T06:38:08;13.77;;;12.47;;
16242;SDS011;11719;51.052;6.982;2022-07-12T06:40:34;4.67;;;4.27;;
16242;SDS011;11719;51.052;6.982;2022-07-12T06:43:00;4.90;;;4.50;;
16242;SDS011;11719;51.052;6.982;2022-07-12T06:45:26;19.20;;;17.30;;
16242;SDS011;11719;51.052;6.982;2022-07-12T06:47:52;6.13;;;5.67;;
16242;SDS011;11719;51.052;6.982;2022-07-12T06:50:18;8.27;;;7.53;;
16242;SDS011;11719;51.052;6.982;2022-07-12T06:52:44;5.27;;;4.77;;
16242;SDS011;11719;51.052;6.982;2022-07-12T06:55:10;6.33;;;5.83;;
16242;SDS011;11719;51.052;6.982;2022-07-12T06:57:36;4.83;;;4.33;;
16242;SDS011;11719;51.052;6.982;2022-07-12T07:00:03;5.20;;;4.67;;
16242;SDS011;11719;51.052;6.982;2022-07-12T07:02:31;16.70;;;15.10;;
16242;SDS011;11719;51.052;6.982;2022-07-12T07:04:57;18.67;;;16.67;;
16242;SDS011;11719;51.052;6.982;2022-07-12T07:07:23;21.43;;;17.70;;
16242;SDS011;11719;51.052;6.982;2022-07-12T07:09:48;24.27;;;19.97;;
16242;SDS011;11719;51.052;6.982;2022-07-12T07:12:14;18.27;;;16.33;;
16242;SDS011;11719;51.052;6.982;2022-07-12T07:14:40;22.30;;;17.13;;
16242;SDS011;11719;51.052;6.982;2022-07-12T07:17:06;21.57;;;17.47;;
16242;SDS011;11719;51.052;6.982;2022-07-12T07:19:31;6.43;;;5.90;;
16242;SDS011;11719;51.052;6.982;2022-07-12T07:21:57;20.33;;;17.97;;
16242;SDS011;11719;51.052;6.982;2022-07-12T07:24:24;22.53;;;19.53;;
16242;SDS011;11719;51.052;6.982;2022-07-12T07:26:50;21.07;;;18.17;;
16242;SDS011;11719;51.052;6.982;2022-07-12T07:29:16;7.17;;;6.30;;
16242;SDS011;11719;51.052;6.982;2022-07-12T07:32:00;5.60;;;5.10;;
16242;SDS011;11719;51.052;6.982;2022-07-12T07:34:26;5.60;;;5.10;;
16242;SDS011;11719;51.052;6.982;2022-07-12T07:36:52;5.60;;;5.10;;
16242;SDS011;11719;51.052;6.982;2022-07-12T07:39:18;12.97;;;11.67;;
16242;SDS011;11719;51.052;6.982;2022-07-12T07:41:44;20.07;;;17.93;;
16242;SDS011;11719;51.052;6.982;2022-07-12T07:44:10;7.47;;;6.77;;
16242;SDS011;11719;51.052;6.982;2022-07-12T07:46:36;19.20;;;15.70;;
16242;SDS011;11719;51.052;6.982;2022-07-12T07:49:02;5.87;;;5.47;;
16242;SDS011;11719;51.052;6.982;2022-07-12T07:51:28;19.50;;;15.83;;
16242;SDS011;11719;51.052;6.982;2022-07-12T07:53:54;15.17;;;13.57;;
16242;SDS011;11719;51.052;6.982;2022-07-12T07:56:20;6.33;;;5.83;;
16242;SDS011;11719;51.052;6.982;2022-07-12T07:58:46;7.73;;;7.03;;
16242;SDS011;11719;51.052;6.982;2022-07-12T08:01:12;16.73;;;13.73;;
16242;SDS011;11719;51.052;6.982;2022-07-12T08:03:37;18.37;;;14.10;;
16242;SDS011;11719;51.052;6.982;2022-07-12T08:06:04;17.73;;;14.53;;
16242;SDS011;11719;51.052;6.982;2022-07-12T08:08:30;16.87;;;15.10;;
16242;SDS011;11719;51.052;6.982;2022-07-12T08:10:56;17.03;;;14.17;;
16242;SDS011;11719;51.052;6.982;2022-07-12T08:13:22;15.23;;;12.97;;
16242;SDS011;11719;51.052;6.982;2022-07-12T08:15:48;13.43;;;12.00;;
16242;SDS011;11719;51.052;6.982;2022-07-12T08:18:15;12.17;;;10.83;;
16242;SDS011;11719;51.052;6.982;2022-07-12T08:20:40;13.77;;;11.67;;
16242;SDS011;11719;51.052;6.982;2022-07-12T08:23:06;12.67;;;10.80;;
16242;SDS011;11719;51.052;6.982;2022-07-12T08:25:33;11.77;;;10.37;;
16242;SDS011;11719;51.052;6.982;2022-07-12T08:27:59;10.83;;;9.73;;
16242;SDS011;11719;51.052;6.982;2022-07-12T08:30:26;12.77;;;10.37;;
16242;SDS011;11719;51.052;6.982;2022-07-12T08:32:52;11.20;;;9.93;;
16242;SDS011;11719;51.052;6.982;2022-07-12T08:35:19;12.33;;;9.40;;
16242;SDS011;11719;51.052;6.982;2022-07-12T08:37:46;14.60;;;11.27;;
16242;SDS011;11719;51.052;6.982;2022-07-12T08:40:11;10.63;;;9.53;;
16242;SDS011;11719;51.052;6.982;2022-07-12T08:42:41;12.10;;;10.07;;
16242;SDS011;11719;51.052;6.982;2022-07-12T08:45:07;10.70;;;9.67;;
16242;SDS011;11719;51.052;6.982;2022-07-12T08:47:34;11.57;;;10.00;;
16242;SDS011;11719;51.052;6.982;2022-07-12T08:50:13;12.90;;;9.50;;
16242;SDS011;11719;51.052;6.982;2022-07-12T08:52:46;11.10;;;9.80;;
16242;SDS011;11719;51.052;6.982;2022-07-12T08:55:24;12.20;;;9.93;;
16242;SDS011;11719;51.052;6.982;2022-07-12T08:58:01;11.73;;;8.57;;
16242;SDS011;11719;51.052;6.982;2022-07-12T09:00:31;9.03;;;7.97;;
16242;SDS011;11719;51.052;6.982;2022-07-12T09:02:59;11.27;;;9.33;;
16242;SDS011;11719;51.052;6.982;2022-07-12T09:05:28;10.73;;;8.90;;
16242;SDS011;11719;51.052;6.982;2022-07-12T09:08:02;7.40;;;6.70;;
16242;SDS011;11719;51.052;6.982;2022-07-12T09:13:49;10.67;;;7.33;;
16242;SDS011;11719;51.052;6.982;2022-07-12T09:16:20;8.53;;;7.20;;
16242;SDS011;11719;51.052;6.982;2022-07-12T09:18:48;8.53;;;7.20;;
16242;SDS011;11719;51.052;6.982;2022-07-12T09:21:28;10.47;;;7.67;;
16242;SDS011;11719;51.052;6.982;2022-07-12T09:23:58;13.50;;;10.03;;
16242;SDS011;11719;51.052;6.982;2022-07-12T09:26:27;6.93;;;6.20;;
16242;SDS011;11719;51.052;6.982;2022-07-12T09:29:06;7.10;;;6.40;;
16242;SDS011;11719;51.052;6.982;2022-07-12T09:31:40;7.80;;;6.80;;
16242;SDS011;11719;51.052;6.982;2022-07-12T09:34:30;10.07;;;9.10;;
16242;SDS011;11719;51.052;6.982;2022-07-12T09:37:15;8.53;;;7.63;;
16242;SDS011;11719;51.052;6.982;2022-07-12T09:39:42;11.27;;;8.20;;
16242;SDS011;11719;51.052;6.982;2022-07-12T09:42:09;8.60;;;6.13;;
16242;SDS011;11719;51.052;6.982;2022-07-12T09:44:36;6.00;;;5.40;;
16242;SDS011;11719;51.052;6.982;2022-07-12T09:47:03;5.60;;;5.00;;
16242;SDS011;11719;51.052;6.982;2022-07-12T09:49:32;5.83;;;5.17;;
16242;SDS011;11719;51.052;6.982;2022-07-12T09:51:59;4.30;;;3.90;;
16242;SDS011;11719;51.052;6.982;2022-07-12T09:54:28;4.57;;;4.17;;
16242;SDS011;11719;51.052;6.982;2022-07-12T09:56:57;5.57;;;4.23;;
16242;SDS011;11719;51.052;6.982;2022-07-12T09:59:27;7.63;;;4.73;;
16242;SDS011;11719;51.052;6.982;2022-07-12T10:01:57;5.10;;;3.73;;
16242;SDS011;11719;51.052;6.982;2022-07-12T10:04:27;3.92;;;3.58;;
16242;SDS011;11719;51.052;6.982;2022-07-12T10:06:57;4.33;;;3.90;;
16242;SDS011;11719;51.052;6.982;2022-07-12T10:09:24;4.22;;;3.33;;
16242;SDS011;11719;51.052;6.982;2022-07-12T10:11:52;4.22;;;3.83;;
16242;SDS011;11719;51.052;6.982;2022-07-12T10:14:19;4.10;;;2.10;;
16242;SDS011;11719;51.052;6.982;2022-07-12T10:16:46;2.50;;;2.30;;
16242;SDS011;11719;51.052;6.982;2022-07-12T10:19:30;5.10;;;4.60;;
16242;SDS011;11719;51.052;6.982;2022-07-12T10:22:00;5.00;;;4.50;;
16242;SDS011;11719;51.052;6.982;2022-07-12T10:29:39;4.25;;;3.85;;
16242;SDS011;11719;51.052;6.982;2022-07-12T10:32:23;2.40;;;2.20;;
16242;SDS011;11719;51.052;6.982;2022-07-12T10:34:59;1.85;;;1.67;;
16242;SDS011;11719;51.052;6.982;2022-07-12T10:37:29;5.20;;;3.80;;
16242;SDS011;11719;51.052;6.982;2022-07-12T10:45:31;3.70;;;3.35;;
16242;SDS011;11719;51.052;6.982;2022-07-12T10:48:03;2.97;;;1.90;;
16242;SDS011;11719;51.052;6.982;2022-07-12T11:01:04;3.08;;;1.40;;
16242;SDS011;11719;51.052;6.982;2022-07-12T11:03:49;3.35;;;3.00;;
16242;SDS011;11719;51.052;6.982;2022-07-12T11:06:33;2.88;;;2.47;;
16242;SDS011;11719;51.052;6.982;2022-07-12T11:09:20;3.40;;;3.00;;
16242;SDS011;11719;51.052;6.982;2022-07-12T11:11:46;5.10;;;2.92;;
16242;SDS011;11719;51.052;6.982;2022-07-12T11:16:55;4.00;;;3.13;;
16242;SDS011;11719;51.052;6.982;2022-07-12T11:19:29;3.35;;;3.03;;
16242;SDS011;11719;51.052;6.982;2022-07-12T11:21:56;3.20;;;2.92;;
16242;SDS011;11719;51.052;6.982;2022-07-12T11:24:27;2.05;;;1.85;;
16242;SDS011;11719;51.052;6.982;2022-07-12T11:26:55;3.17;;;2.88;;
16242;SDS011;11719;51.052;6.982;2022-07-12T11:29:21;2.80;;;2.60;;
16242;SDS011;11719;51.052;6.982;2022-07-12T11:31:48;3.45;;;3.15;;
16242;SDS011;11719;51.052;6.982;2022-07-12T11:34:20;3.22;;;2.92;;
16242;SDS011;11719;51.052;6.982;2022-07-12T11:36:46;3.95;;;2.80;;
16242;SDS011;11719;51.052;6.982;2022-07-12T11:39:16;3.85;;;2.97;;
16242;SDS011;11719;51.052;6.982;2022-07-12T11:41:55;3.08;;;2.58;;
16242;SDS011;11719;51.052;6.982;2022-07-12T11:44:27;2.67;;;2.47;;
16242;SDS011;11719;51.052;6.982;2022-07-12T11:47:14;2.47;;;2.28;;
16242;SDS011;11719;51.052;6.982;2022-07-12T11:49:46;2.17;;;1.98;;
16242;SDS011;11719;51.052;6.982;2022-07-12T11:52:21;3.13;;;2.30;;
16242;SDS011;11719;51.052;6.982;2022-07-12T11:54:49;2.83;;;2.53;;
16242;SDS011;11719;51.052;6.982;2022-07-12T11:57:20;2.47;;;2.13;;
16242;SDS011;11719;51.052;6.982;2022-07-12T11:59:50;4.28;;;2.50;;
16242;SDS011;11719;51.052;6.982;2022-07-12T12:02:16;2.38;;;2.17;;
16242;SDS011;11719;51.052;6.982;2022-07-12T12:04:46;2.42;;;2.22;;
16242;SDS011;11719;51.052;6.982;2022-07-12T12:07:18;3.03;;;2.72;;
16242;SDS011;11719;51.052;6.982;2022-07-12T12:12:49;2.88;;;2.17;;
16242;SDS011;11719;51.052;6.982;2022-07-12T12:15:18;3.00;;;2.80;;
16242;SDS011;11719;51.052;6.982;2022-07-12T12:17:52;2.92;;;2.72;;
16242;SDS011;11719;51.052;6.982;2022-07-12T12:20:27;3.00;;;2.75;;
16242;SDS011;11719;51.052;6.982;2022-07-12T12:22:55;2.60;;;2.40;;
16242;SDS011;11719;51.052;6.982;2022-07-12T12:25:23;3.08;;;2.78;;
16242;SDS011;11719;51.052;6.982;2022-07-12T12:27:54;2.50;;;2.30;;
16242;SDS011;11719;51.052;6.982;2022-07-12T12:30:34;2.83;;;2.63;;
16242;SDS011;11719;51.052;6.982;2022-07-12T12:33:38;2.40;;;2.20;;
16242;SDS011;11719;51.052;6.982;2022-07-12T12:36:12;2.63;;;2.42;;
16242;SDS011;11719;51.052;6.982;2022-07-12T12:38:49;2.70;;;2.33;;
16242;SDS011;11719;51.052;6.982;2022-07-12T12:41:27;2.60;;;2.25;;
16242;SDS011;11719;51.052;6.982;2022-07-12T12:43:58;3.67;;;2.20;;
16242;SDS011;11719;51.052;6.982;2022-07-12T12:49:48;3.40;;;2.03;;
16242;SDS011;11719;51.052;6.982;2022-07-12T12:52:18;4.43;;;2.45;;
16242;SDS011;11719;51.052;6.982;2022-07-12T12:55:04;2.33;;;2.13;;
16242;SDS011;11719;51.052;6.982;2022-07-12T12:57:30;2.97;;;2.58;;
16242;SDS011;11719;51.052;6.982;2022-07-12T12:59:56;4.82;;;2.53;;
16242;SDS011;11719;51.052;6.982;2022-07-12T13:02:22;2.67;;;1.85;;
16242;SDS011;11719;51.052;6.982;2022-07-12T13:04:49;2.40;;;2.20;;
16242;SDS011;11719;51.052;6.982;2022-07-12T13:07:15;4.20;;;2.50;;
16242;SDS011;11719;51.052;6.982;2022-07-12T13:09:41;2.33;;;2.13;;
16242;SDS011;11719;51.052;6.982;2022-07-12T13:12:07;3.88;;;2.15;;
16242;SDS011;11719;51.052;6.982;2022-07-12T13:14:34;2.05;;;1.85;;
16242;SDS011;11719;51.052;6.982;2022-07-12T13:17:00;1.98;;;1.80;;
16242;SDS011;11719;51.052;6.982;2022-07-12T13:19:26;2.30;;;1.95;;
16242;SDS011;11719;51.052;6.982;2022-07-12T13:21:52;3.15;;;2.08;;
16242;SDS011;11719;51.052;6.982;2022-07-12T13:24:17;4.25;;;2.00;;
16242;SDS011;11719;51.052;6.982;2022-07-12T13:26:43;2.70;;;2.05;;
16242;SDS011;11719;51.052;6.982;2022-07-12T13:29:09;2.08;;;1.85;;
16242;SDS011;11719;51.052;6.982;2022-07-12T13:31:35;2.35;;;2.15;;
16242;SDS011;11719;51.052;6.982;2022-07-12T13:34:01;2.45;;;2.10;;
16242;SDS011;11719;51.052;6.982;2022-07-12T13:36:27;3.65;;;2.15;;
16242;SDS011;11719;51.052;6.982;2022-07-12T13:38:52;2.30;;;1.90;;
16242;SDS011;11719;51.052;6.982;2022-07-12T13:41:19;2.30;;;1.70;;
16242;SDS011;11719;51.052;6.982;2022-07-12T13:43:45;2.13;;;1.95;;
16242;SDS011;11719;51.052;6.982;2022-07-12T13:46:10;1.95;;;1.75;;
16242;SDS011;11719;51.052;6.982;2022-07-12T13:48:37;3.13;;;1.90;;
16242;SDS011;11719;51.052;6.982;2022-07-12T13:51:03;1.80;;;1.70;;
16242;SDS011;11719;51.052;6.982;2022-07-12T13:53:29;1.52;;;1.40;;
16242;SDS011;11719;51.052;6.982;2022-07-12T13:55:56;4.05;;;1.65;;
16242;SDS011;11719;51.052;6.982;2022-07-12T13:58:22;2.60;;;2.25;;
16242;SDS011;11719;51.052;6.982;2022-07-12T14:00:48;2.47;;;2.28;;
16242;SDS011;11719;51.052;6.982;2022-07-12T14:03:14;2.17;;;1.77;;
16242;SDS011;11719;51.052;6.982;2022-07-12T14:05:40;1.92;;;1.83;;
16242;SDS011;11719;51.052;6.982;2022-07-12T14:08:06;5.55;;;2.10;;
16242;SDS011;11719;51.052;6.982;2022-07-12T14:10:32;3.55;;;1.80;;
16242;SDS011;11719;51.052;6.982;2022-07-12T14:12:58;2.40;;;1.90;;
16242;SDS011;11719;51.052;6.982;2022-07-12T14:15:24;2.45;;;2.22;;
16242;SDS011;11719;51.052;6.982;2022-07-12T14:18:06;1.75;;;1.65;;
16242;SDS011;11719;51.052;6.982;2022-07-12T14:20:33;2.38;;;1.83;;
16242;SDS011;11719;51.052;6.982;2022-07-12T14:23:01;2.25;;;2.10;;
16242;SDS011;11719;51.052;6.982;2022-07-12T14:25:28;2.00;;;1.80;;
16242;SDS011;11719;51.052;6.982;2022-07-12T14:27:54;1.95;;;1.80;;
16242;SDS011;11719;51.052;6.982;2022-07-12T14:30:20;2.83;;;1.83;;
16242;SDS011;11719;51.052;6.982;2022-07-12T14:32:46;3.70;;;1.50;;
16242;SDS011;11719;51.052;6.982;2022-07-12T14:35:12;3.35;;;1.63;;
16242;SDS011;11719;51.052;6.982;2022-07-12T14:37:38;3.05;;;1.58;;
16242;SDS011;11719;51.052;6.982;2022-07-12T14:40:05;2.60;;;1.80;;
16242;SDS011;11719;51.052;6.982;2022-07-12T14:42:32;1.77;;;1.33;;
16242;SDS011;11719;51.052;6.982;2022-07-12T14:44:58;2.30;;;1.98;;
16242;SDS011;11719;51.052;6.982;2022-07-12T14:47:23;1.55;;;1.42;;
16242;SDS011;11719;51.052;6.982;2022-07-12T14:49:50;2.15;;;1.60;;
16242;SDS011;11719;51.052;6.982;2022-07-12T14:52:18;1.60;;;1.50;;
16242;SDS011;11719;51.052;6.982;2022-07-12T14:54:44;1.60;;;1.45;;
16242;SDS011;11719;51.052;6.982;2022-07-12T14:57:10;3.25;;;1.70;;
16242;SDS011;11719;51.052;6.982;2022-07-12T14:59:36;2.05;;;1.92;;
16242;SDS011;11719;51.052;6.982;2022-07-12T15:02:02;2.00;;;1.85;;
16242;SDS011;11719;51.052;6.982;2022-07-12T15:04:28;2.67;;;1.65;;
16242;SDS011;11719;51.052;6.982;2022-07-12T15:06:54;1.73;;;1.63;;
16242;SDS011;11719;51.052;6.982;2022-07-12T15:09:20;2.97;;;2.13;;
16242;SDS011;11719;51.052;6.982;2022-07-12T15:11:46;2.42;;;1.50;;
16242;SDS011;11719;51.052;6.982;2022-07-12T15:14:11;2.20;;;2.00;;
16242;SDS011;11719;51.052;6.982;2022-07-12T15:16:37;2.00;;;1.70;;
16242;SDS011;11719;51.052;6.982;2022-07-12T15:19:03;2.78;;;1.48;;
16242;SDS011;11719;51.052;6.982;2022-07-12T15:21:29;2.88;;;1.90;;
16242;SDS011;11719;51.052;6.982;2022-07-12T15:23:55;2.42;;;1.90;;